Time;durP1;ratioP1;P1;durP2;ratioP2;P2;SDS_P1;SDS_P2;PMS_P1;PMS_P2;Temp;Humidity;BMP_temperature;BMP_pressure;BME280_temperature;BME280_humidity;BME280_pressure;Samples;Min_cycle;Max_cycle;Signal;HPM_P1;HPM_P2
2021/11/01 00:00:13;;;;;;;4.25;1.20;;;23.30;81.20;;;;;;5034278;28;20029;-66
2021/11/01 00:02:41;;;;;;;6.05;1.60;;;23.50;79.00;;;;;;5033120;28;20024;-69
2021/11/01 00:05:09;;;;;;;3.67;1.50;;;23.70;79.60;;;;;;5037137;28;20480;-67
2021/11/01 00:07:37;;;;;;;4.63;1.30;;;24.10;74.40;;;;;;5033915;28;20029;-67
2021/11/01 00:10:06;;;;;;;4.88;1.75;;;24.40;76.40;;;;;;5034574;28;20470;-69
2021/11/01 00:12:33;;;;;;;5.72;1.42;;;24.70;73.00;;;;;;5035524;28;20033;-66
2021/11/01 00:15:01;;;;;;;5.63;1.30;;;24.50;72.90;;;;;;5034863;28;20018;-69
2021/11/01 00:17:28;;;;;;;7.18;1.33;;;24.40;71.50;;;;;;5033898;28;20028;-67
2021/11/01 00:19:56;;;;;;;3.72;1.20;;;24.30;71.20;;;;;;5038585;28;20211;-67
2021/11/01 00:22:24;;;;;;;2.95;1.15;;;24.60;69.80;;;;;;5035192;28;20028;-66
2021/11/01 00:24:51;;;;;;;5.88;1.45;;;24.60;70.10;;;;;;5033576;28;20116;-66
2021/11/01 00:27:19;;;;;;;5.78;1.30;;;24.70;70.00;;;;;;5032309;28;20033;-68
2021/11/01 00:29:47;;;;;;;6.75;1.45;;;24.50;70.30;;;;;;5038108;28;20025;-67
2021/11/01 00:32:14;;;;;;;3.92;1.20;;;24.40;71.20;;;;;;5033386;28;20032;-67
2021/11/01 00:34:41;;;;;;;4.45;1.23;;;24.60;71.20;;;;;;5031076;28;20048;-67
2021/11/01 00:37:10;;;;;;;5.57;1.45;;;24.60;70.60;;;;;;5033539;28;20044;-69
2021/11/01 00:39:37;;;;;;;3.25;1.15;;;24.60;68.90;;;;;;5032352;28;20111;-67
2021/11/01 00:42:05;;;;;;;6.75;1.45;;;24.70;69.00;;;;;;5031656;28;20438;-67
2021/11/01 00:44:32;;;;;;;5.47;1.27;;;24.80;69.70;;;;;;5038440;28;20029;-66
2021/11/01 00:47:00;;;;;;;5.07;1.60;;;24.90;67.20;;;;;;5031309;28;20036;-69
2021/11/01 00:49:27;;;;;;;4.82;1.38;;;25.10;68.40;;;;;;5044205;28;20053;-67
2021/11/01 00:51:58;;;;;;;5.13;1.80;;;25.10;67.40;;;;;;5032028;28;20079;-66
2021/11/01 00:54:25;;;;;;;4.22;1.83;;;25.10;65.20;;;;;;5058744;22;20094;-68
2021/11/01 00:56:52;;;;;;;4.70;1.63;;;24.90;68.30;;;;;;5060630;28;20028;-68
2021/11/01 00:59:20;;;;;;;18.27;12.77;;;25.20;66.60;;;;;;5055476;28;20062;-66
2021/11/01 01:01:48;;;;;;;7.15;5.43;;;25.50;66.20;;;;;;5056113;28;20472;-66
2021/11/01 01:04:17;;;;;;;5.88;2.30;;;25.80;63.40;;;;;;5056877;28;20074;-65
2021/11/01 01:06:44;;;;;;;3.30;1.48;;;25.80;62.80;;;;;;5059522;28;20028;-68
2021/11/01 01:09:11;;;;;;;5.32;1.40;;;26.20;62.90;;;;;;5055721;28;20447;-67
2021/11/01 01:11:38;;;;;;;2.80;1.20;;;26.40;62.70;;;;;;5054379;28;20380;-66
2021/11/01 01:14:06;;;;;;;4.03;1.08;;;26.40;61.30;;;;;;5058588;28;20112;-69
2021/11/01 01:16:39;;;;;;;3.97;1.50;;;26.40;62.40;;;;;;5058181;28;20099;-67
2021/11/01 01:19:14;;;;;;;4.28;1.40;;;26.80;61.90;;;;;;5057006;28;20384;-67
2021/11/01 01:24:26;;;;;;;7.03;1.55;;;27.50;59.20;;;;;;5057233;28;20035;-67
2021/11/01 01:26:54;;;;;;;7.03;1.77;;;27.00;58.90;;;;;;5058518;28;20580;-67
2021/11/01 01:29:21;;;;;;;3.38;1.13;;;27.30;59.60;;;;;;5056733;28;20487;-67
2021/11/01 01:31:48;;;;;;;3.92;1.20;;;27.40;56.20;;;;;;5055784;28;20021;-67
2021/11/01 01:34:15;;;;;;;5.13;1.60;;;27.60;56.40;;;;;;5058010;28;20017;-66
2021/11/01 01:36:42;;;;;;;4.57;1.25;;;27.10;57.10;;;;;;5058046;28;20478;-68
2021/11/01 01:39:09;;;;;;;7.45;1.50;;;26.70;59.00;;;;;;5056534;28;20029;-67
2021/11/01 01:41:36;;;;;;;3.53;1.58;;;27.00;58.60;;;;;;5057227;28;20025;-69
2021/11/01 01:44:03;;;;;;;4.97;1.27;;;27.00;58.00;;;;;;5056689;28;20028;-66
2021/11/01 01:46:31;;;;;;;4.55;1.40;;;27.20;55.90;;;;;;5056909;28;20033;-67
2021/11/01 01:48:58;;;;;;;5.78;1.70;;;27.00;57.40;;;;;;5054872;28;20108;-66
2021/11/01 01:51:30;;;;;;;4.25;1.42;;;26.80;57.40;;;;;;5057260;28;20027;-67
2021/11/01 01:53:59;;;;;;;3.60;1.00;;;26.80;57.20;;;;;;5055916;28;20041;-66
2021/11/01 01:56:26;;;;;;;5.05;1.00;;;26.80;56.80;;;;;;5057965;28;20025;-69
2021/11/01 01:58:57;;;;;;;3.38;0.98;;;27.10;56.90;;;;;;5059133;28;20028;-67
2021/11/01 02:01:24;;;;;;;2.47;1.35;;;26.90;56.00;;;;;;5055360;28;20025;-69
2021/11/01 02:03:53;;;;;;;5.10;1.00;;;26.70;56.90;;;;;;5055961;28;20131;-66
2021/11/01 02:06:49;;;;;;;4.03;1.25;;;26.90;57.10;;;;;;5054727;28;20068;-67
2021/11/01 02:09:18;;;;;;;5.35;1.27;;;27.00;55.20;;;;;;5058335;28;20024;-69
2021/11/01 02:11:56;;;;;;;2.60;0.90;;;27.20;54.70;;;;;;5050640;28;20027;-69
2021/11/01 02:14:33;;;;;;;2.33;1.15;;;27.10;54.80;;;;;;3998215;28;10000972;-66
2021/11/01 02:17:01;;;;;;;2.25;0.82;;;26.70;52.00;;;;;;5046352;28;20312;-66
2021/11/01 02:19:33;;;;;;;3.83;0.82;;;26.80;54.20;;;;;;5046289;28;20016;-66
2021/11/01 02:22:08;;;;;;;3.25;0.90;;;27.00;54.70;;;;;;5046571;28;20065;-69
2021/11/01 02:24:53;;;;;;;6.47;1.42;;;27.60;54.20;;;;;;5045665;28;20088;-66
2021/11/01 02:27:22;;;;;;;2.38;1.13;;;27.90;52.80;;;;;;5043633;28;20025;-67
2021/11/01 02:29:49;;;;;;;4.30;0.95;;;28.20;52.70;;;;;;5046394;28;20048;-69
2021/11/01 02:32:17;;;;;;;5.35;1.40;;;28.30;50.70;;;;;;5046001;28;20021;-68
2021/11/01 02:34:45;;;;;;;2.03;1.08;;;28.70;51.50;;;;;;5045681;28;20020;-67
2021/11/01 02:37:12;;;;;;;5.57;1.20;;;28.90;52.60;;;;;;5045384;28;20029;-66
2021/11/01 02:39:54;;;;;;;2.95;0.98;;;29.10;50.10;;;;;;5039330;28;20021;-68
2021/11/01 02:42:24;;;;;;;3.25;1.00;;;29.00;50.50;;;;;;5040364;28;20037;-66
2021/11/01 02:45:03;;;;;;;2.92;1.10;;;28.70;51.30;;;;;;5051502;28;20020;-67
2021/11/01 02:47:31;;;;;;;4.63;1.00;;;28.70;51.20;;;;;;5046731;28;20033;-66
2021/11/01 02:50:00;;;;;;;3.75;0.82;;;28.20;50.50;;;;;;5046708;28;20030;-65
2021/11/01 02:52:31;;;;;;;4.88;1.25;;;27.60;52.40;;;;;;5046105;28;20025;-68
2021/11/01 02:54:58;;;;;;;3.75;1.00;;;27.60;51.40;;;;;;5045214;28;20726;-69
2021/11/01 02:57:25;;;;;;;4.60;1.25;;;27.50;51.90;;;;;;5046644;28;20028;-68
2021/11/01 02:59:52;;;;;;;4.30;1.08;;;27.30;52.30;;;;;;5044527;28;20017;-69
2021/11/01 03:02:20;;;;;;;4.03;1.20;;;27.10;53.30;;;;;;5045227;28;20604;-67
2021/11/01 03:04:47;;;;;;;2.38;0.93;;;27.00;53.60;;;;;;5046356;28;20021;-66
2021/11/01 03:07:16;;;;;;;4.15;1.00;;;27.10;53.60;;;;;;5045705;28;20021;-66
2021/11/01 03:09:46;;;;;;;4.10;1.05;;;27.20;53.30;;;;;;5045620;28;20075;-69
2021/11/01 03:12:16;;;;;;;4.53;1.05;;;27.30;53.50;;;;;;5045028;28;20521;-66
2021/11/01 03:14:51;;;;;;;2.53;1.00;;;27.50;54.70;;;;;;5041903;28;20025;-65
2021/11/01 03:17:21;;;;;;;4.68;0.95;;;27.50;52.90;;;;;;5045598;28;20024;-66
2021/11/01 03:20:02;;;;;;;4.38;1.30;;;27.30;52.70;;;;;;5045643;28;20493;-63
2021/11/01 03:22:36;;;;;;;2.60;1.25;;;27.30;53.20;;;;;;5040198;28;20029;-66
2021/11/01 03:25:11;;;;;;;3.95;1.17;;;27.20;53.50;;;;;;5040463;28;20028;-68
2021/11/01 03:27:40;;;;;;;4.82;1.20;;;27.40;52.00;;;;;;5042265;28;20029;-66
2021/11/01 03:30:08;;;;;;;5.65;1.23;;;27.30;51.30;;;;;;5050800;28;20433;-66
2021/11/01 03:32:36;;;;;;;4.13;1.30;;;27.30;50.90;;;;;;5041227;28;20510;-66
2021/11/01 03:35:04;;;;;;;7.18;1.20;;;27.60;50.70;;;;;;5044956;28;20023;-68
2021/11/01 03:37:32;;;;;;;4.05;1.17;;;27.70;52.30;;;;;;5044782;28;20017;-66
2021/11/01 03:40:00;;;;;;;3.58;1.08;;;27.50;52.00;;;;;;5045944;28;20083;-68
2021/11/01 03:42:28;;;;;;;2.08;0.90;;;27.50;50.70;;;;;;5046576;28;20063;-66
2021/11/01 03:45:03;;;;;;;5.28;0.90;;;27.30;51.40;;;;;;5046737;28;20033;-65
2021/11/01 03:47:37;;;;;;;6.32;1.20;;;27.60;51.10;;;;;;5046905;28;20028;-65
2021/11/01 03:50:15;;;;;;;3.67;1.10;;;27.70;50.70;;;;;;5046083;28;20028;-67
2021/11/01 03:52:44;;;;;;;5.57;1.10;;;27.80;52.40;;;;;;5044562;28;20797;-65
2021/11/01 03:55:11;;;;;;;4.95;3.10;;;28.00;50.50;;;;;;5045440;28;20036;-64
2021/11/01 03:57:38;;;;;;;5.60;2.20;;;28.00;49.40;;;;;;5039839;28;20036;-66
2021/11/01 04:00:07;;;;;;;5.68;3.25;;;27.90;49.60;;;;;;5045400;28;20112;-67
2021/11/01 04:02:34;;;;;;;4.28;1.10;;;28.00;49.20;;;;;;5045559;28;20036;-67
2021/11/01 04:05:01;;;;;;;7.32;4.32;;;28.20;49.20;;;;;;5036572;28;20033;-69
2021/11/01 04:07:30;;;;;;;5.85;2.03;;;28.20;48.40;;;;;;5039839;28;20032;-67
2021/11/01 04:09:57;;;;;;;3.95;2.20;;;28.30;47.80;;;;;;5040319;28;20025;-67
2021/11/01 04:12:24;;;;;;;4.38;1.30;;;28.40;47.30;;;;;;5044965;28;20040;-67
2021/11/01 04:15:11;;;;;;;3.13;1.00;;;28.60;47.60;;;;;;5045380;28;20025;-68
2021/11/01 04:21:11;;;;;;;2.17;0.88;;;28.60;46.60;;;;;;5054980;28;20039;-67
2021/11/01 04:23:13;;;;;;;3.67;1.15;;;28.50;46.50;;;;;;5037168;28;20520;-68
2021/11/01 04:25:40;;;;;;;3.92;0.80;;;28.40;45.40;;;;;;5047126;28;20224;-66
2021/11/01 04:28:07;;;;;;;3.03;0.90;;;28.30;45.70;;;;;;5038183;28;20041;-65
2021/11/01 04:30:46;;;;;;;3.97;1.10;;;28.00;45.80;;;;;;5047988;28;20479;-65
2021/11/01 04:33:16;;;;;;;5.38;1.23;;;27.60;46.50;;;;;;5034655;28;20084;-66
2021/11/01 04:35:43;;;;;;;3.33;0.85;;;27.20;46.70;;;;;;5047406;28;20389;-66
2021/11/01 04:41:16;;;;;;;2.83;0.80;;;26.70;47.70;;;;;;5042361;28;20108;-67
2021/11/01 04:54:44;;;;;;;3.70;1.35;;;26.70;47.30;;;;;;5040362;28;20114;-65
2021/11/01 04:57:12;;;;;;;2.15;1.00;;;27.10;47.10;;;;;;5046817;28;20025;-67
2021/11/01 04:59:40;;;;;;;4.05;1.38;;;27.60;45.80;;;;;;5035593;28;20053;-67
2021/11/01 05:02:07;;;;;;;1.83;1.05;;;28.20;45.40;;;;;;5043238;28;20029;-67
2021/11/01 05:04:36;;;;;;;9.90;5.25;;;28.60;45.00;;;;;;5035983;28;20384;-67
2021/11/01 05:07:06;;;;;;;6.65;3.35;;;28.90;44.70;;;;;;5046658;28;20017;-68
2021/11/01 05:17:33;;;;;;;32.25;9.43;;;28.40;45.90;;;;;;5044075;28;20021;-68
2021/11/01 05:25:03;;;;;;;5.95;3.10;;;27.70;46.80;;;;;;5035785;28;20036;-68
2021/11/01 05:30:09;;;;;;;8.77;3.58;;;27.60;46.50;;;;;;5041610;28;20029;-67
2021/11/01 05:32:39;;;;;;;4.57;2.47;;;27.40;46.60;;;;;;5046380;28;20060;-68
2021/11/01 05:35:06;;;;;;;4.90;3.00;;;27.30;46.90;;;;;;5046211;28;20110;-65
2021/11/01 05:37:34;;;;;;;4.72;1.20;;;27.20;47.30;;;;;;5046083;28;20025;-65
2021/11/01 05:40:02;;;;;;;3.47;1.42;;;27.30;47.40;;;;;;5045994;28;20048;-66
2021/11/01 05:42:29;;;;;;;3.20;0.95;;;27.10;47.40;;;;;;5046671;28;20141;-67
2021/11/01 05:44:57;;;;;;;2.65;1.00;;;26.90;46.60;;;;;;5051494;28;20048;-67
2021/11/01 05:47:24;;;;;;;4.32;1.42;;;26.90;46.90;;;;;;5047599;28;20037;-66
2021/11/01 05:49:51;;;;;;;5.32;2.97;;;26.50;47.80;;;;;;5052698;28;20017;-67
2021/11/01 05:52:25;;;;;;;2.03;0.98;;;26.30;48.20;;;;;;5052789;28;20048;-66
2021/11/01 05:54:55;;;;;;;1.63;0.95;;;26.20;47.80;;;;;;5050344;28;20103;-68
2021/11/01 05:58:08;;;;;;;3.42;1.48;;;26.00;48.40;;;;;;5055525;28;20043;-67
2021/11/01 06:13:59;;;;;;;4.13;1.20;;;25.40;55.10;;;;;;5049496;28;20460;-65
2021/11/01 06:16:27;;;;;;;5.15;1.30;;;25.30;56.80;;;;;;5050266;28;20020;-66
2021/11/01 06:18:54;;;;;;;6.22;1.45;;;25.30;58.30;;;;;;5054195;28;20025;-66
2021/11/01 06:21:22;;;;;;;5.13;1.83;;;25.10;59.10;;;;;;5049898;28;20025;-69
2021/11/01 06:23:53;;;;;;;3.40;1.13;;;25.10;60.30;;;;;;5048776;28;20021;-67
2021/11/01 06:26:21;;;;;;;3.97;1.38;;;24.90;61.70;;;;;;5047942;28;20044;-68
2021/11/01 06:28:53;;;;;;;8.23;2.08;;;24.80;63.30;;;;;;5048594;28;20502;-68
2021/11/01 06:31:26;;;;;;;7.38;1.52;;;24.80;64.30;;;;;;5044815;28;20174;-66
2021/11/01 06:44:26;;;;;;;5.57;1.45;;;25.10;63.80;;;;;;5037518;28;20121;-68
2021/11/01 06:55:24;;;;;;;2.75;1.27;;;24.70;67.40;;;;;;5042030;28;20060;-67
2021/11/01 07:19:32;;;;;;;3.85;1.20;;;23.70;75.10;;;;;;5045048;28;20051;-66
2021/11/01 08:49:14;;;;;;;7.65;2.00;;;20.60;95.00;;;;;;5042369;28;20075;-68
2021/11/01 09:07:27;;;;;;;4.18;1.80;;;20.20;95.70;;;;;;5043746;28;20248;-72
2021/11/01 09:26:05;;;;;;;4.82;1.35;;;19.90;96.60;;;;;;5045340;28;20029;-69
2021/11/01 09:28:37;;;;;;;3.42;1.45;;;20.00;96.80;;;;;;5038159;28;20453;-69
2021/11/01 09:36:54;;;;;;;3.83;1.65;;;20.00;96.50;;;;;;5054407;28;20581;-67
2021/11/01 09:42:07;;;;;;;5.70;1.45;;;19.90;96.80;;;;;;5042621;28;20066;-68
2021/11/01 09:44:35;;;;;;;9.27;1.98;;;19.80;96.70;;;;;;5037521;28;20112;-69
2021/11/01 09:47:03;;;;;;;7.05;2.55;;;19.80;96.60;;;;;;5043399;28;20389;-70
2021/11/01 09:49:31;;;;;;;9.38;6.38;;;19.70;97.10;;;;;;5037517;28;20594;-70
2021/11/01 09:52:02;;;;;;;6.82;2.00;;;19.70;97.50;;;;;;5038386;28;20017;-70
2021/11/01 09:54:31;;;;;;;4.80;1.42;;;19.70;96.90;;;;;;5037803;28;20950;-69
2021/11/01 09:57:05;;;;;;;5.35;1.20;;;19.60;97.10;;;;;;5041533;28;20029;-68
2021/11/01 09:59:38;;;;;;;3.55;1.25;;;19.60;97.40;;;;;;5043893;28;20463;-67
2021/11/01 10:02:08;;;;;;;6.03;1.45;;;19.50;97.80;;;;;;5043633;28;20033;-69
2021/11/01 10:04:37;;;;;;;6.00;2.15;;;19.50;97.90;;;;;;5049612;28;20029;-72
2021/11/01 10:07:19;;;;;;;3.50;1.70;;;19.40;97.80;;;;;;5048600;28;20058;-66
2021/11/01 10:09:48;;;;;;;3.20;1.55;;;19.40;98.00;;;;;;5052220;28;20035;-68
2021/11/01 10:12:31;;;;;;;3.35;1.73;;;19.50;97.80;;;;;;5045866;28;20063;-66
2021/11/01 10:18:13;;;;;;;5.63;1.77;;;19.40;98.00;;;;;;5046419;28;20423;-67
2021/11/01 10:20:46;;;;;;;4.70;1.42;;;19.40;99.10;;;;;;5049612;28;20573;-69
2021/11/01 10:23:23;;;;;;;5.13;1.65;;;19.40;99.00;;;;;;5046006;28;20024;-70
2021/11/01 10:26:05;;;;;;;4.20;1.63;;;19.40;99.20;;;;;;5049578;28;20097;-67
2021/11/01 10:28:34;;;;;;;6.90;1.70;;;19.30;98.90;;;;;;5050633;28;20033;-69
2021/11/01 10:31:07;;;;;;;5.35;1.38;;;19.20;99.40;;;;;;5051610;28;20051;-68
2021/11/01 10:33:37;;;;;;;5.88;1.40;;;19.20;99.80;;;;;;5046772;28;20147;-69
2021/11/01 10:36:04;;;;;;;7.75;2.15;;;19.20;99.90;;;;;;5052853;28;20025;-68
2021/11/01 10:38:35;;;;;;;6.38;1.60;;;19.10;99.90;;;;;;5050654;28;20021;-70
2021/11/01 10:41:11;;;;;;;5.05;1.50;;;19.10;99.90;;;;;;5051806;28;20036;-70
2021/11/01 11:11:41;;;;;;;3.50;1.23;;;18.50;99.90;;;;;;5051133;28;20404;-68
2021/11/01 11:14:20;;;;;;;4.80;1.40;;;18.40;99.90;;;;;;5049253;28;20028;-68
2021/11/01 11:48:38;;;;;;;4.57;1.40;;;18.10;99.90;;;;;;5043944;28;20624;-69
2021/11/01 11:50:40;;;;;;;3.00;1.63;;;18.10;99.90;;;;;;5037781;28;20328;-68
2021/11/01 11:53:24;;;;;;;3.50;1.23;;;18.10;99.90;;;;;;5040980;28;20132;-67
2021/11/01 11:56:08;;;;;;;4.93;1.50;;;18.10;99.90;;;;;;5043539;28;20031;-68
2021/11/01 11:58:47;;;;;;;5.25;1.40;;;18.10;99.90;;;;;;5043399;28;20086;-69
2021/11/01 12:01:37;;;;;;;5.10;1.60;;;18.10;99.90;;;;;;5033791;28;20069;-68
2021/11/01 12:04:21;;;;;;;6.65;1.55;;;18.00;99.90;;;;;;5035849;28;20033;-67
2021/11/01 12:06:57;;;;;;;3.83;1.50;;;17.90;99.90;;;;;;5039313;28;20307;-69
2021/11/01 12:09:34;;;;;;;6.57;1.55;;;17.80;99.90;;;;;;5041050;28;20073;-69
2021/11/01 12:17:32;;;;;;;5.65;1.42;;;17.80;99.90;;;;;;5037033;28;20032;-69
2021/11/01 12:20:08;;;;;;;3.97;1.40;;;17.70;99.90;;;;;;5040376;28;20497;-69
2021/11/01 12:22:42;;;;;;;4.38;1.63;;;17.70;99.90;;;;;;5040522;28;20048;-69
2021/11/01 12:25:14;;;;;;;4.88;1.60;;;17.70;99.90;;;;;;5039559;28;20132;-69
2021/11/01 12:27:45;;;;;;;8.23;1.75;;;17.70;99.90;;;;;;5042290;28;20475;-68
2021/11/01 12:30:24;;;;;;;7.05;2.00;;;17.60;99.90;;;;;;5043892;28;20037;-69
2021/11/01 12:32:52;;;;;;;7.53;2.30;;;17.60;99.90;;;;;;5042956;28;20041;-67
2021/11/01 12:35:30;;;;;;;5.72;1.73;;;17.60;99.90;;;;;;5043879;28;20573;-68
2021/11/01 12:38:13;;;;;;;9.10;1.77;;;17.60;99.90;;;;;;5039568;28;20025;-68
2021/11/01 12:40:55;;;;;;;3.33;1.60;;;17.50;99.90;;;;;;5047746;28;20024;-68
2021/11/01 12:49:11;;;;;;;3.90;1.70;;;17.40;99.90;;;;;;5015395;28;20041;-67
2021/11/01 12:57:36;;;;;;;5.18;1.40;;;17.20;99.90;;;;;;5051149;28;20086;-68
2021/11/01 13:00:06;;;;;;;7.50;1.90;;;17.20;99.90;;;;;;5051343;28;20086;-67
2021/11/01 13:02:37;;;;;;;3.38;1.40;;;17.20;99.90;;;;;;5049733;28;20263;-68
2021/11/01 13:05:08;;;;;;;12.60;2.42;;;17.10;99.90;;;;;;5051386;28;20040;-69
2021/11/01 13:13:36;;;;;;;5.60;1.60;;;17.20;99.90;;;;;;5050536;28;20303;-67
2021/11/01 13:19:02;;;;;;;5.18;1.48;;;17.10;99.90;;;;;;5049648;28;20029;-69
2021/11/01 13:21:37;;;;;;;6.68;1.60;;;17.10;99.90;;;;;;5050274;28;20485;-67
2021/11/01 13:24:08;;;;;;;7.10;1.33;;;17.10;99.90;;;;;;5044875;28;20154;-67
2021/11/01 13:35:40;;;;;;;3.97;1.50;;;17.00;99.90;;;;;;5049023;28;20059;-67
2021/11/01 13:38:08;;;;;;;10.15;1.70;;;17.00;99.90;;;;;;5049707;28;20037;-69
2021/11/01 13:40:45;;;;;;;11.57;2.10;;;17.00;99.90;;;;;;5049398;28;20040;-68
2021/11/01 13:43:12;;;;;;;5.07;1.58;;;16.90;99.90;;;;;;5043989;28;20037;-69
2021/11/01 13:45:41;;;;;;;3.25;1.65;;;16.90;99.90;;;;;;5049586;28;20510;-69
2021/11/01 13:48:08;;;;;;;3.15;1.45;;;16.90;99.90;;;;;;5049621;28;20116;-68
2021/11/01 13:50:38;;;;;;;4.00;1.17;;;16.90;99.90;;;;;;5049244;28;20025;-69
2021/11/01 13:53:12;;;;;;;5.10;1.42;;;16.90;99.90;;;;;;5041081;28;20048;-67
2021/11/01 13:55:49;;;;;;;4.57;1.50;;;16.90;99.90;;;;;;5049666;28;20036;-69
2021/11/01 14:17:33;;;;;;;8.68;1.92;;;16.60;99.90;;;;;;5049578;28;20098;-69
2021/11/01 14:36:30;;;;;;;9.52;2.30;;;16.80;99.90;;;;;;5044657;28;20055;-68
2021/11/01 15:01:21;;;;;;;7.60;2.42;;;16.30;99.90;;;;;;5048365;28;20156;-69
2021/11/01 15:14:55;;;;;;;5.78;2.00;;;16.00;99.90;;;;;;5043863;28;20502;-67
2021/11/01 15:25:45;;;;;;;7.45;2.40;;;15.90;99.90;;;;;;5048347;28;20027;-69
2021/11/01 15:31:17;;;;;;;8.05;2.50;;;15.90;99.90;;;;;;5048207;28;20048;-69
2021/11/01 15:39:12;;;;;;;6.75;2.03;;;15.80;99.90;;;;;;5048018;28;20405;-67
2021/11/01 16:17:45;;;;;;;5.40;1.60;;;15.40;99.90;;;;;;5047760;28;20458;-69
2021/11/01 16:20:12;;;;;;;4.18;2.00;;;15.30;99.90;;;;;;5052119;28;20028;-69
2021/11/01 16:22:40;;;;;;;6.45;2.20;;;15.30;99.90;;;;;;5051626;28;20036;-69
2021/11/01 16:25:08;;;;;;;5.82;2.40;;;15.30;99.90;;;;;;5051756;28;20071;-68
2021/11/01 16:27:42;;;;;;;9.85;2.55;;;15.30;99.90;;;;;;5049577;28;20027;-69
2021/11/01 16:30:19;;;;;;;9.15;1.80;;;15.20;99.90;;;;;;5051640;28;20029;-69
2021/11/01 16:32:57;;;;;;;10.73;2.38;;;15.10;99.90;;;;;;5051796;28;20064;-69
2021/11/01 16:35:32;;;;;;;4.95;1.60;;;15.10;99.90;;;;;;5050468;28;20028;-68
2021/11/01 16:38:09;;;;;;;9.52;2.08;;;15.10;99.90;;;;;;5049766;28;20096;-68
2021/11/01 16:40:40;;;;;;;8.02;2.88;;;15.00;99.90;;;;;;5046577;28;20028;-69
2021/11/01 16:43:16;;;;;;;8.65;1.95;;;15.00;99.90;;;;;;5051498;28;20505;-68
2021/11/01 16:45:48;;;;;;;4.68;1.70;;;14.90;99.90;;;;;;5044848;28;20025;-68
2021/11/01 16:48:16;;;;;;;13.82;2.42;;;14.90;99.90;;;;;;5050252;28;20090;-68
2021/11/01 16:50:43;;;;;;;7.82;2.05;;;14.90;99.90;;;;;;5049874;28;20390;-69
2021/11/01 16:53:12;;;;;;;5.32;2.08;;;14.90;99.90;;;;;;5050883;28;20044;-69
2021/11/01 16:55:41;;;;;;;8.80;2.08;;;14.90;99.90;;;;;;5045031;28;20471;-69
2021/11/01 17:01:06;;;;;;;6.07;1.63;;;14.70;99.90;;;;;;5050771;28;20024;-68
2021/11/01 17:24:59;;;;;;;5.45;1.55;;;14.40;99.90;;;;;;5044569;28;20029;-69
2021/11/01 18:51:02;;;;;;;11.70;3.50;;;13.90;99.90;;;;;;5048580;28;20056;-69
2021/11/01 18:53:42;;;;;;;21.10;4.93;;;13.90;99.90;;;;;;5049109;28;20045;-69
2021/11/01 18:56:11;;;;;;;11.63;3.25;;;13.90;99.90;;;;;;5042317;28;20017;-69
2021/11/01 18:58:43;;;;;;;12.48;3.65;;;13.80;99.90;;;;;;5047840;28;20033;-69
2021/11/01 19:01:12;;;;;;;6.55;3.10;;;13.70;99.90;;;;;;5048675;28;20082;-69
2021/11/01 19:03:45;;;;;;;7.20;3.50;;;13.80;99.90;;;;;;5048147;28;20651;-69
2021/11/01 19:08:59;;;;;;;11.95;3.05;;;13.90;99.90;;;;;;5048306;28;20036;-68
2021/11/01 20:11:25;;;;;;;9.63;3.97;;;15.10;99.90;;;;;;5044873;28;20032;-71
2021/11/01 21:26:20;;;;;;;7.43;1.95;;;19.00;99.90;;;;;;5033534;28;20048;-66
2021/11/01 21:28:49;;;;;;;9.60;2.15;;;19.00;99.90;;;;;;5038715;28;20144;-65
2021/11/01 21:31:18;;;;;;;12.43;2.22;;;19.10;99.90;;;;;;5037897;28;20070;-64
2021/11/01 21:33:47;;;;;;;8.32;2.17;;;19.40;99.90;;;;;;5036193;28;20017;-63
2021/11/01 21:36:23;;;;;;;4.18;1.30;;;19.50;99.90;;;;;;5042546;28;20068;-64
2021/11/01 21:38:55;;;;;;;18.65;12.38;;;19.70;99.90;;;;;;5037675;28;20029;-67
2021/11/01 21:41:26;;;;;;;8.68;2.40;;;19.90;99.90;;;;;;5037029;28;20388;-65
2021/11/01 21:43:54;;;;;;;8.00;2.92;;;19.90;99.90;;;;;;5041265;28;20033;-66
2021/11/01 21:46:21;;;;;;;14.52;8.77;;;19.80;99.90;;;;;;5040077;28;20087;-65
2021/11/01 21:48:49;;;;;;;9.07;4.25;;;19.80;99.90;;;;;;5042152;28;20029;-65
2021/11/01 21:51:17;;;;;;;6.10;2.38;;;19.80;99.90;;;;;;5038019;28;20041;-67
2021/11/01 21:54:05;;;;;;;6.22;1.92;;;20.00;99.90;;;;;;5039223;28;20128;-66
2021/11/01 21:56:33;;;;;;;7.85;2.00;;;20.20;99.90;;;;;;5041725;28;20032;-67
2021/11/01 22:18:31;;;;;;;5.72;1.45;;;22.10;97.60;;;;;;5038757;28;20028;-66
2021/11/01 22:21:07;;;;;;;10.48;2.38;;;22.10;97.50;;;;;;5038941;28;20021;-70
2021/11/01 22:23:45;;;;;;;3.58;1.27;;;22.20;97.20;;;;;;5040980;28;20424;-70
2021/11/01 22:34:48;;;;;;;3.42;1.90;;;22.80;96.20;;;;;;5015642;28;20037;-66
2021/11/01 22:59:14;;;;;;;3.15;1.05;;;24.30;90.40;;;;;;5040415;28;20084;-66
2021/11/01 23:01:44;;;;;;;6.30;1.42;;;24.10;92.40;;;;;;5038322;28;20040;-68
2021/11/01 23:04:26;;;;;;;4.53;1.23;;;24.20;91.20;;;;;;5037695;28;20025;-68
2021/11/01 23:31:39;;;;;;;3.55;1.25;;;24.30;90.30;;;;;;5041982;28;20071;-69
2021/11/01 23:34:13;;;;;;;3.20;1.20;;;24.10;90.70;;;;;;5039273;28;20036;-70
2021/11/01 23:36:41;;;;;;;4.25;0.90;;;24.00;91.00;;;;;;5035460;28;20798;-70
2021/11/01 23:39:11;;;;;;;3.88;1.13;;;24.30;90.90;;;;;;5037667;28;20038;-71
2021/11/01 23:41:43;;;;;;;3.05;1.25;;;24.60;91.60;;;;;;5041665;28;20406;-68
2021/11/01 23:44:11;;;;;;;3.65;1.08;;;25.20;85.70;;;;;;5039207;28;20033;-68
2021/11/01 23:46:38;;;;;;;3.22;1.10;;;25.50;85.20;;;;;;5036893;28;20041;-70
2021/11/01 23:49:06;;;;;;;5.60;2.83;;;25.60;84.70;;;;;;5038778;28;20021;-69
2021/11/01 23:51:36;;;;;;;2.33;0.68;;;25.70;84.00;;;;;;5040366;28;20467;-70
2021/11/01 23:56:35;;;;;;;6.05;1.20;;;26.30;78.90;;;;;;5039474;28;20009;-68
2021/11/01 23:59:02;;;;;;;1.33;0.60;;;26.30;77.30;;;;;;5034740;28;20030;-68
